createdAt,value
2023-01-02T00:01:41.507Z,2.89
2023-01-02T00:04:10.034Z,2.46
2023-01-02T00:06:38.742Z,2.96
2023-01-02T00:09:08.099Z,3.21
2023-01-02T00:11:36.574Z,3.10
2023-01-02T00:14:04.992Z,3.11
2023-01-02T00:16:33.523Z,3.26
2023-01-02T00:19:02.013Z,2.03
2023-01-02T00:21:30.368Z,2.66
2023-01-02T00:23:58.724Z,2.72
2023-01-02T00:26:27.115Z,2.96
2023-01-02T00:28:55.755Z,3.19
2023-01-02T00:31:25.504Z,3.19
2023-01-02T00:33:53.918Z,2.23
2023-01-02T00:36:23.841Z,2.75
2023-01-02T00:38:55.807Z,2.47
2023-01-02T00:41:24.211Z,2.51
2023-01-02T00:43:52.662Z,2.61
2023-01-02T00:46:21.446Z,2.80
2023-01-02T00:48:49.962Z,2.90
2023-01-02T00:51:19.281Z,2.80
2023-01-02T00:53:47.624Z,3.07
2023-01-02T00:56:16.076Z,2.59
2023-01-02T00:58:44.425Z,2.86
2023-01-02T01:01:12.947Z,2.47
2023-01-02T01:03:43.654Z,2.82
2023-01-02T01:06:12.104Z,2.41
2023-01-02T01:08:40.721Z,2.65
2023-01-02T01:11:11.667Z,2.75
2023-01-02T01:13:40.142Z,2.40
2023-01-02T01:16:10.671Z,2.18
2023-01-02T01:18:39.145Z,2.36
2023-01-02T01:21:26.899Z,2.43
2023-01-02T01:23:55.638Z,2.44
2023-01-02T01:26:24.098Z,2.10
2023-01-02T01:28:56.030Z,2.11
2023-01-02T01:31:24.631Z,1.99
2023-01-02T01:33:53.016Z,2.05
2023-01-02T01:36:22.838Z,2.20
2023-01-02T01:38:51.341Z,2.58
2023-01-02T01:41:21.323Z,1.90
2023-01-02T01:43:54.901Z,2.49
2023-01-02T01:46:42.659Z,2.39
2023-01-02T01:49:14.250Z,2.05
2023-01-02T01:51:52.349Z,2.07
2023-01-02T01:54:26.545Z,2.43
2023-01-02T01:56:57.721Z,2.24
2023-01-02T01:59:26.119Z,1.92
2023-01-02T02:01:54.615Z,2.12
2023-01-02T02:04:23.317Z,1.63
2023-01-02T02:06:51.670Z,2.20
2023-01-02T02:09:26.359Z,1.67
2023-01-02T02:11:55.412Z,1.94
2023-01-02T02:14:23.769Z,1.69
2023-01-02T02:17:01.035Z,1.63
2023-01-02T02:19:56.750Z,1.88
2023-01-02T02:22:55.986Z,1.72
2023-01-02T02:25:50.242Z,1.79
2023-01-02T02:28:31.124Z,1.61
2023-01-02T02:31:28.824Z,1.78
2023-01-02T02:34:21.459Z,1.06
2023-01-02T02:36:56.685Z,1.78
2023-01-02T02:39:36.053Z,1.81
2023-01-02T02:42:09.902Z,1.71
2023-01-02T02:44:56.507Z,1.71
2023-01-02T02:47:25.042Z,1.43
2023-01-02T02:50:05.497Z,1.52
2023-01-02T02:52:35.328Z,1.78
2023-01-02T02:55:20.330Z,1.79
2023-01-02T02:57:48.823Z,1.70
2023-01-02T03:00:19.983Z,1.59
2023-01-02T03:02:48.690Z,1.70
2023-01-02T03:05:22.097Z,1.53
2023-01-02T03:07:59.186Z,1.84
2023-01-02T03:10:35.944Z,1.51
2023-01-02T03:13:40.975Z,1.40
2023-01-02T03:16:16.732Z,1.65
2023-01-02T03:19:01.809Z,1.65
2023-01-02T03:21:34.289Z,1.86
2023-01-02T03:24:06.240Z,1.72
2023-01-02T03:26:35.180Z,1.86
2023-01-02T03:29:07.371Z,1.79
2023-01-02T03:31:37.969Z,2.02
2023-01-02T03:34:14.249Z,1.49
2023-01-02T03:36:43.763Z,1.84
2023-01-02T03:39:15.616Z,1.66
2023-01-02T03:41:48.488Z,1.42
2023-01-02T03:44:16.912Z,1.80
2023-01-02T03:46:50.543Z,1.94
2023-01-02T03:49:31.980Z,1.89
2023-01-02T03:52:00.352Z,1.97
2023-01-02T03:54:28.806Z,2.00
2023-01-02T03:57:07.716Z,1.89
2023-01-02T03:59:48.327Z,1.65
2023-01-02T04:02:43.511Z,1.81
2023-01-02T04:05:25.646Z,1.75
2023-01-02T04:08:04.318Z,1.56
2023-01-02T04:10:32.761Z,1.90
2023-01-02T04:13:03.045Z,1.20
2023-01-02T04:15:33.816Z,1.44
2023-01-02T04:18:13.786Z,1.62
2023-01-02T04:20:44.919Z,1.78
2023-01-02T04:23:38.121Z,1.77
2023-01-02T04:26:16.464Z,1.69
2023-01-02T04:28:44.832Z,1.49
2023-01-02T04:31:28.183Z,1.70
2023-01-02T04:33:59.051Z,0.80
2023-01-02T04:36:27.486Z,0.97
2023-01-02T04:38:55.884Z,0.59
2023-01-02T04:41:28.437Z,0.82
2023-01-02T04:43:57.097Z,0.50
2023-01-02T04:46:26.248Z,0.76
2023-01-02T04:48:55.171Z,0.57
2023-01-02T04:51:23.697Z,0.67
2023-01-02T04:53:53.396Z,0.83
2023-01-02T04:56:21.849Z,0.37
2023-01-02T04:58:50.534Z,0.52
2023-01-02T05:01:20.301Z,0.73
2023-01-02T05:03:51.675Z,1.03
2023-01-02T05:06:20.292Z,0.60
2023-01-02T05:08:48.603Z,0.93
2023-01-02T05:11:18.678Z,1.01
2023-01-02T05:13:47.063Z,0.53
2023-01-02T05:16:15.556Z,0.84
2023-01-02T05:18:44.020Z,0.59
2023-01-02T05:21:31.746Z,0.64
2023-01-02T05:24:02.207Z,0.42
2023-01-02T05:26:33.348Z,0.76
2023-01-02T05:29:01.973Z,0.53
2023-01-02T05:31:30.478Z,1.02
2023-01-02T05:33:59.506Z,0.42
2023-01-02T05:36:27.927Z,0.99
2023-01-02T05:38:56.518Z,0.67
2023-01-02T05:41:24.820Z,0.46
2023-01-02T05:43:54.556Z,-0.05
2023-01-02T05:46:22.998Z,1.01
2023-01-02T05:48:51.358Z,1.16
2023-01-02T05:51:20.808Z,1.49
2023-01-02T05:53:49.390Z,1.32
2023-01-02T05:56:19.396Z,1.58
2023-01-02T05:58:48.711Z,1.32
2023-01-02T06:01:19.460Z,1.48
2023-01-02T06:03:51.810Z,1.54
2023-01-02T06:06:25.355Z,1.71
2023-01-02T06:08:54.299Z,1.71
2023-01-02T06:11:23.673Z,1.88
2023-01-02T06:13:52.747Z,1.52
2023-01-02T06:16:21.455Z,1.57
2023-01-02T06:18:50.027Z,1.33
2023-01-02T06:21:19.571Z,1.22
2023-01-02T06:23:48.270Z,1.44
2023-01-02T06:26:18.668Z,1.53
2023-01-02T06:28:49.316Z,1.45
2023-01-02T06:31:20.410Z,1.23
2023-01-02T06:33:48.877Z,1.38
2023-01-02T06:36:18.252Z,1.83
2023-01-02T06:38:46.768Z,1.89
2023-01-02T06:41:15.316Z,2.08
2023-01-02T06:43:45.182Z,2.24
2023-01-02T06:46:14.497Z,2.00
2023-01-02T06:48:43.153Z,2.22
2023-01-02T06:51:13.437Z,2.01
2023-01-02T06:53:42.341Z,1.69
2023-01-02T06:56:11.375Z,2.24
2023-01-02T06:58:39.992Z,2.51
2023-01-02T07:01:15.661Z,2.78
2023-01-02T07:03:44.178Z,3.01
2023-01-02T07:06:14.637Z,3.24
2023-01-02T07:08:46.079Z,3.81
2023-01-02T07:11:19.353Z,4.13
2023-01-02T07:13:48.478Z,4.24
2023-01-02T07:16:17.838Z,4.28
2023-01-02T07:18:46.333Z,4.20
2023-01-02T07:21:15.225Z,4.48
2023-01-02T07:23:43.702Z,4.90
2023-01-02T07:26:12.670Z,5.50
2023-01-02T07:28:41.094Z,6.05
2023-01-02T07:31:12.979Z,6.59
2023-01-02T07:33:42.745Z,6.82
2023-01-02T07:36:13.153Z,6.79
2023-01-02T07:38:41.669Z,6.57
2023-01-02T07:41:18.379Z,6.42
2023-01-02T07:43:46.996Z,6.19
2023-01-02T07:46:16.892Z,6.08
2023-01-02T07:48:45.782Z,6.28
2023-01-02T07:51:17.413Z,6.93
2023-01-02T07:53:48.208Z,7.58
2023-01-02T07:56:16.690Z,8.35
2023-01-02T07:58:45.228Z,9.00
2023-01-02T08:01:13.900Z,9.31
2023-01-02T08:03:42.508Z,9.38
2023-01-02T08:06:12.917Z,9.87
2023-01-02T08:08:41.481Z,9.69
2023-01-02T08:11:11.770Z,9.47
2023-01-02T08:13:40.283Z,9.13
2023-01-02T08:16:11.000Z,8.95
2023-01-02T08:18:40.517Z,9.14
2023-01-02T08:21:10.414Z,9.06
2023-01-02T08:23:38.911Z,8.68
2023-01-02T08:26:08.900Z,8.69
2023-01-02T08:28:38.100Z,8.98
2023-01-02T08:31:14.585Z,9.61
2023-01-02T08:33:43.021Z,10.23
2023-01-02T08:36:11.547Z,11.11
2023-01-02T08:38:41.348Z,12.21
2023-01-02T08:41:09.918Z,13.26
2023-01-02T08:43:38.389Z,14.33
2023-01-02T08:46:07.817Z,15.07
2023-01-02T08:48:36.554Z,15.92
2023-01-02T08:51:05.229Z,16.98
2023-01-02T08:53:33.683Z,18.14
2023-01-02T08:56:22.287Z,19.56
2023-01-02T08:58:58.912Z,20.68
2023-01-02T09:01:28.245Z,21.74
2023-01-02T09:03:56.871Z,22.75
2023-01-02T09:06:26.210Z,23.55
2023-01-02T09:08:56.102Z,24.24
2023-01-02T09:11:32.438Z,25.08
2023-01-02T09:14:01.143Z,24.51
2023-01-02T09:16:29.711Z,25.97
2023-01-02T09:18:59.568Z,26.51
2023-01-02T09:21:29.943Z,27.01
2023-01-02T09:23:58.433Z,27.38
2023-01-02T09:26:26.821Z,27.68
2023-01-02T09:28:55.437Z,27.94
2023-01-02T09:31:24.072Z,27.69
2023-01-02T09:33:53.548Z,26.66
2023-01-02T09:36:22.420Z,25.12
2023-01-02T09:38:58.086Z,23.72
2023-01-02T09:41:42.953Z,22.06
2023-01-02T09:44:34.109Z,20.84
2023-01-02T09:47:05.906Z,19.70
2023-01-02T09:49:39.795Z,18.74
2023-01-02T09:52:08.968Z,17.66
2023-01-02T09:54:37.546Z,17.17
2023-01-02T09:57:27.267Z,16.71
2023-01-02T10:00:10.521Z,16.21
2023-01-02T10:03:11.764Z,15.60
2023-01-02T10:05:59.335Z,15.35
2023-01-02T10:08:57.092Z,15.10
2023-01-02T10:11:40.392Z,15.05
2023-01-02T10:14:36.001Z,14.36
2023-01-02T10:17:08.853Z,14.65
2023-01-02T10:19:55.408Z,14.57
2023-01-02T10:22:29.340Z,14.37
2023-01-02T10:25:16.099Z,14.43
2023-01-02T10:27:48.212Z,14.30
2023-01-02T10:30:22.659Z,14.39
2023-01-02T10:32:59.062Z,14.42
2023-01-02T10:35:42.059Z,14.37
2023-01-02T10:38:15.843Z,14.50
2023-01-02T10:40:46.865Z,14.77
2023-01-02T10:43:15.466Z,14.79
2023-01-02T10:45:44.427Z,14.95
2023-01-02T10:48:13.050Z,14.56
2023-01-02T10:50:43.711Z,15.01
2023-01-02T10:53:22.311Z,15.02
2023-01-02T10:55:50.831Z,14.46
2023-01-02T10:58:26.864Z,14.79
2023-01-02T11:01:19.419Z,15.12
2023-01-02T11:04:12.728Z,14.15
2023-01-02T11:06:53.067Z,14.59
2023-01-02T11:09:36.195Z,14.94
2023-01-02T11:12:07.567Z,15.04
2023-01-02T11:14:36.629Z,14.82
2023-01-02T11:17:16.108Z,15.22
2023-01-02T11:19:46.163Z,15.33
2023-01-02T11:22:16.394Z,15.19
2023-01-02T11:24:59.605Z,15.01
2023-01-02T11:27:36.311Z,15.36
2023-01-02T11:30:06.757Z,15.42
2023-01-02T11:32:41.616Z,15.41
2023-01-02T11:35:34.627Z,14.84
2023-01-02T11:38:03.666Z,15.40
2023-01-02T11:40:33.417Z,15.76
2023-01-02T11:43:24.319Z,16.00
2023-01-02T11:45:53.061Z,15.86
2023-01-02T11:48:23.422Z,15.71
2023-01-02T11:50:52.044Z,16.12
2023-01-02T11:53:34.803Z,15.97
2023-01-02T11:56:11.500Z,16.29
2023-01-02T11:58:59.635Z,16.27
2023-01-02T12:01:39.695Z,16.30
2023-01-02T12:04:08.187Z,15.96
2023-01-02T12:06:45.688Z,15.73
2023-01-02T12:09:15.720Z,16.17
2023-01-02T12:12:14.206Z,16.35
2023-01-02T12:15:16.229Z,16.40
2023-01-02T12:17:57.049Z,16.41
2023-01-02T12:20:45.719Z,16.43
2023-01-02T12:23:17.519Z,16.44
2023-01-02T12:25:56.803Z,16.31
2023-01-02T12:28:51.486Z,16.41
2023-01-02T12:31:41.671Z,16.71
2023-01-02T12:34:30.976Z,16.81
2023-01-02T12:37:09.528Z,17.03
2023-01-02T12:39:56.504Z,16.74
2023-01-02T12:42:47.923Z,16.92
2023-01-02T12:45:53.525Z,17.14
2023-01-02T12:48:46.533Z,17.21
2023-01-02T12:51:39.889Z,17.26
2023-01-02T12:54:23.813Z,17.24
2023-01-02T12:57:22.337Z,17.26
2023-01-02T13:00:03.799Z,17.27
2023-01-02T13:02:59.690Z,17.38
2023-01-02T13:05:46.723Z,17.38
2023-01-02T13:08:19.677Z,17.47
2023-01-02T13:10:48.286Z,17.44
2023-01-02T13:13:17.127Z,17.50
2023-01-02T13:15:49.775Z,17.60
2023-01-02T13:18:38.274Z,17.67
2023-01-02T13:21:28.976Z,17.61
2023-01-02T13:23:57.596Z,17.62
2023-01-02T13:26:27.505Z,17.70
2023-01-02T13:29:03.920Z,17.77
2023-01-02T13:31:46.618Z,17.70
2023-01-02T13:34:21.797Z,17.71
2023-01-02T13:36:51.071Z,17.71
2023-01-02T13:39:24.575Z,17.77
2023-01-02T13:42:12.953Z,17.75
2023-01-02T13:44:43.833Z,17.72
2023-01-02T13:47:25.685Z,17.69
2023-01-02T13:50:19.797Z,17.67
2023-01-02T13:53:12.593Z,17.62
2023-01-02T13:55:40.884Z,17.65
2023-01-02T13:58:15.486Z,16.82
2023-01-02T14:00:57.128Z,17.18
2023-01-02T14:03:32.995Z,17.27
2023-01-02T14:06:06.028Z,17.24
2023-01-02T14:08:39.175Z,17.22
2023-01-02T14:11:09.419Z,17.04
2023-01-02T14:13:44.726Z,16.95
2023-01-02T14:16:49.849Z,16.93
2023-01-02T14:19:20.821Z,16.88
2023-01-02T14:22:18.144Z,16.72
2023-01-02T14:24:51.193Z,16.63
2023-01-02T14:27:29.378Z,16.55
2023-01-02T14:30:00.834Z,16.38
2023-01-02T14:32:43.563Z,16.26
2023-01-02T14:35:15.197Z,16.19
2023-01-02T14:37:53.995Z,15.94
2023-01-02T14:40:22.419Z,15.78
2023-01-02T14:43:19.900Z,15.59
2023-01-02T14:45:59.756Z,15.35
2023-01-02T14:48:39.122Z,15.14
2023-01-02T14:51:10.845Z,15.03
2023-01-02T14:53:49.388Z,14.46
2023-01-02T14:56:31.754Z,14.37
2023-01-02T14:59:00.331Z,14.38
2023-01-02T15:01:42.644Z,13.84
2023-01-02T15:04:19.011Z,13.71
2023-01-02T15:07:09.834Z,13.36
2023-01-02T15:09:42.144Z,12.69
2023-01-02T15:12:41.765Z,12.58
2023-01-02T15:15:17.899Z,12.90
2023-01-02T15:17:49.583Z,12.39
2023-01-02T15:20:24.749Z,12.43
2023-01-02T15:22:54.109Z,12.46
2023-01-02T15:25:39.771Z,12.26
2023-01-02T15:28:28.467Z,12.36
2023-01-02T15:31:04.518Z,12.12
2023-01-02T15:33:35.193Z,12.05
2023-01-02T15:36:09.108Z,11.21
2023-01-02T15:38:37.703Z,11.40
2023-01-02T15:41:08.644Z,11.39
2023-01-02T15:43:58.621Z,11.24
2023-01-02T15:46:28.379Z,11.10
2023-01-02T15:48:57.308Z,10.90
2023-01-02T15:51:40.276Z,10.65
2023-01-02T15:54:15.285Z,10.68
2023-01-02T15:56:46.097Z,10.46
2023-01-02T15:59:25.896Z,10.50
2023-01-02T16:02:00.260Z,10.06
2023-01-02T16:04:31.683Z,9.88
2023-01-02T16:07:14.718Z,9.86
2023-01-02T16:09:48.813Z,9.80
2023-01-02T16:12:21.281Z,9.90
2023-01-02T16:14:53.407Z,9.43
2023-01-02T16:17:38.753Z,9.87
2023-01-02T16:20:19.629Z,9.96
2023-01-02T16:22:56.655Z,10.02
2023-01-02T16:25:33.667Z,9.81
2023-01-02T16:28:35.465Z,10.14
2023-01-02T16:31:15.554Z,10.23
2023-01-02T16:33:48.801Z,10.31
2023-01-02T16:36:22.997Z,10.31
2023-01-02T16:38:54.132Z,9.82
2023-01-02T16:41:45.169Z,9.52
2023-01-02T16:44:17.450Z,9.58
2023-01-02T16:46:49.258Z,9.66
2023-01-02T16:49:23.675Z,9.72
2023-01-02T16:51:54.739Z,9.70
2023-01-02T16:54:28.497Z,9.53
2023-01-02T16:56:57.043Z,9.41
2023-01-02T16:59:31.422Z,9.23
2023-01-02T17:02:05.318Z,9.19
2023-01-02T17:04:48.872Z,9.22
2023-01-02T17:07:22.146Z,9.00
2023-01-02T17:09:51.303Z,8.79
2023-01-02T17:12:28.395Z,9.04
2023-01-02T17:15:03.164Z,8.96
2023-01-02T17:17:32.325Z,8.71
2023-01-02T17:20:01.859Z,8.72
2023-01-02T17:22:34.997Z,8.72
2023-01-02T17:25:07.700Z,8.75
2023-01-02T17:27:38.523Z,8.63
2023-01-02T17:30:10.393Z,8.48
2023-01-02T17:32:40.183Z,8.48
2023-01-02T17:35:09.924Z,8.38
2023-01-02T17:37:44.483Z,8.35
2023-01-02T17:40:15.277Z,8.35
2023-01-02T17:42:44.711Z,8.13
2023-01-02T17:45:19.613Z,7.94
2023-01-02T17:48:06.082Z,8.14
2023-01-02T17:50:47.486Z,7.53
2023-01-02T17:53:17.741Z,7.94
2023-01-02T17:56:21.606Z,7.72
2023-01-02T17:58:53.739Z,7.86
2023-01-02T18:01:27.102Z,7.92
2023-01-02T18:04:01.424Z,7.41
2023-01-02T18:06:32.243Z,7.60
2023-01-02T18:09:01.155Z,7.42
2023-01-02T18:11:36.420Z,7.58
2023-01-02T18:14:20.699Z,7.63
2023-01-02T18:16:53.937Z,6.66
2023-01-02T18:19:29.273Z,6.89
2023-01-02T18:21:58.168Z,6.48
2023-01-02T18:24:33.877Z,6.70
2023-01-02T18:27:28.661Z,7.23
2023-01-02T18:30:13.247Z,6.69
2023-01-02T18:32:46.602Z,6.57
2023-01-02T18:35:47.138Z,7.13
2023-01-02T18:38:38.109Z,6.51
2023-01-02T18:41:27.650Z,6.54
2023-01-02T18:44:24.477Z,6.51
2023-01-02T18:47:29.550Z,6.22
2023-01-02T18:50:28.319Z,6.43
2023-01-02T18:53:11.608Z,6.80
2023-01-02T18:55:40.781Z,5.88
2023-01-02T18:58:28.888Z,6.44
2023-01-02T19:01:26.495Z,6.29
2023-01-02T19:04:01.278Z,5.87
2023-01-02T19:06:32.283Z,6.26
2023-01-02T19:09:22.422Z,6.32
2023-01-02T19:12:20.019Z,6.14
2023-01-02T19:14:54.936Z,6.35
2023-01-02T19:17:37.791Z,6.40
2023-01-02T19:20:12.022Z,6.32
2023-01-02T19:22:44.520Z,6.33
2023-01-02T19:25:23.198Z,6.50
2023-01-02T19:27:58.941Z,6.33
2023-01-02T19:30:40.739Z,5.55
2023-01-02T19:33:49.955Z,5.44
2023-01-02T19:36:22.839Z,5.47
2023-01-02T19:38:54.105Z,5.96
2023-01-02T19:41:46.983Z,5.76
2023-01-02T19:44:20.958Z,5.88
2023-01-02T19:46:52.502Z,6.08
2023-01-02T19:49:20.938Z,5.76
2023-01-02T19:51:58.439Z,5.84
2023-01-02T19:54:29.147Z,6.08
2023-01-02T19:56:57.785Z,5.83
2023-01-02T19:59:31.323Z,5.73
2023-01-02T20:02:00.020Z,5.87
2023-01-02T20:04:34.729Z,6.14
2023-01-02T20:07:05.839Z,6.02
2023-01-02T20:09:34.417Z,6.20
2023-01-02T20:12:21.627Z,6.32
2023-01-02T20:14:54.034Z,6.12
2023-01-02T20:17:26.103Z,6.22
2023-01-02T20:19:58.065Z,6.16
2023-01-02T20:22:27.410Z,5.99
2023-01-02T20:25:03.648Z,6.10
2023-01-02T20:27:39.401Z,5.69
2023-01-02T20:30:12.417Z,5.04
2023-01-02T20:32:45.948Z,5.76
2023-01-02T20:35:14.423Z,5.58
2023-01-02T20:37:48.311Z,5.57
2023-01-02T20:40:17.132Z,5.87
2023-01-02T20:42:58.594Z,5.02
2023-01-02T20:45:27.047Z,5.43
2023-01-02T20:47:55.471Z,5.06
2023-01-02T20:50:23.942Z,5.27
2023-01-02T20:52:56.939Z,5.04
2023-01-02T20:55:25.780Z,5.38
2023-01-02T20:57:54.916Z,5.40
2023-01-02T21:00:23.691Z,5.33
2023-01-02T21:02:55.715Z,4.67
2023-01-02T21:05:25.290Z,5.03
2023-01-02T21:07:53.771Z,4.96
2023-01-02T21:10:22.275Z,5.10
2023-01-02T21:13:09.735Z,5.04
2023-01-02T21:15:55.690Z,4.42
2023-01-02T21:18:30.881Z,5.08
2023-01-02T21:21:03.872Z,5.06
2023-01-02T21:23:33.600Z,5.04
2023-01-02T21:26:02.196Z,5.20
2023-01-02T21:28:30.643Z,5.20
2023-01-02T21:30:59.124Z,5.01
2023-01-02T21:33:28.281Z,5.13
2023-01-02T21:35:58.760Z,5.00
2023-01-02T21:38:27.535Z,5.04
2023-01-02T21:40:56.813Z,4.67
2023-01-02T21:43:25.263Z,5.05
2023-01-02T21:45:53.746Z,4.88
2023-01-02T21:48:22.057Z,4.95
2023-01-02T21:50:50.434Z,4.95
2023-01-02T21:53:18.882Z,4.06
2023-01-02T21:55:47.414Z,4.40
2023-01-02T21:58:17.442Z,4.36
2023-01-02T22:00:47.522Z,4.43
2023-01-02T22:03:16.516Z,3.67
2023-01-02T22:05:45.121Z,3.56
2023-01-02T22:08:14.803Z,3.94
2023-01-02T22:10:43.172Z,3.85
2023-01-02T22:13:11.530Z,3.25
2023-01-02T22:15:39.984Z,3.25
2023-01-02T22:18:08.311Z,3.87
2023-01-02T22:20:36.713Z,4.00
2023-01-02T22:23:05.208Z,3.76
2023-01-02T22:25:33.806Z,3.72
2023-01-02T22:28:02.243Z,3.64
2023-01-02T22:30:34.894Z,4.05
2023-01-02T22:33:03.942Z,3.46
2023-01-02T22:35:32.327Z,3.97
2023-01-02T22:38:00.718Z,4.10
2023-01-02T22:40:29.523Z,4.15
2023-01-02T22:43:03.223Z,4.16
2023-01-02T22:45:52.935Z,4.12
2023-01-02T22:48:30.033Z,3.22
2023-01-02T22:50:59.934Z,3.15
2023-01-02T22:53:33.127Z,3.06
2023-01-02T22:56:03.333Z,3.43
2023-01-02T22:58:31.690Z,3.41
2023-01-02T23:01:01.884Z,3.51
2023-01-02T23:03:32.043Z,3.51
2023-01-02T23:06:00.408Z,3.65
2023-01-02T23:08:28.933Z,3.31
2023-01-02T23:10:57.333Z,3.37
2023-01-02T23:13:26.064Z,3.09
2023-01-02T23:16:14.632Z,3.61
2023-01-02T23:19:01.707Z,3.07
2023-01-02T23:21:31.754Z,2.89
2023-01-02T23:24:00.243Z,3.38
2023-01-02T23:26:30.995Z,3.39
2023-01-02T23:29:08.051Z,3.57
2023-01-02T23:31:38.400Z,3.71
2023-01-02T23:34:07.463Z,3.72
2023-01-02T23:36:36.279Z,2.92
2023-01-02T23:39:05.893Z,3.22
2023-01-02T23:41:34.882Z,3.03
2023-01-02T23:44:03.331Z,2.72
2023-01-02T23:46:32.010Z,2.67
2023-01-02T23:49:00.406Z,3.27
2023-01-02T23:51:30.518Z,3.40
2023-01-02T23:53:59.224Z,3.34
2023-01-02T23:56:38.030Z,3.13
2023-01-02T23:59:08.647Z,2.57
